sensor_id;sensor_type;location;lat;lon;timestamp;temperature;humidity
15690;DHT22;7945;48.816;11.506;2022-07-01T00:00:40;24.00;99.30
15690;DHT22;7945;48.816;11.506;2022-07-01T00:03:08;24.00;99.30
15690;DHT22;7945;48.816;11.506;2022-07-01T00:05:35;24.00;98.60
15690;DHT22;7945;48.816;11.506;2022-07-01T00:08:02;23.90;98.50
15690;DHT22;7945;48.816;11.506;2022-07-01T00:10:29;24.00;98.10
15690;DHT22;7945;48.816;11.506;2022-07-01T00:12:56;24.00;97.50
15690;DHT22;7945;48.816;11.506;2022-07-01T00:15:23;23.90;97.30
15690;DHT22;7945;48.816;11.506;2022-07-01T00:17:50;23.80;97.10
15690;DHT22;7945;48.816;11.506;2022-07-01T00:20:18;23.70;96.70
15690;DHT22;7945;48.816;11.506;2022-07-01T00:22:46;23.60;97.20
15690;DHT22;7945;48.816;11.506;2022-07-01T00:25:13;23.40;97.20
15690;DHT22;7945;48.816;11.506;2022-07-01T00:27:40;23.40;97.00
15690;DHT22;7945;48.816;11.506;2022-07-01T00:30:08;23.30;97.30
15690;DHT22;7945;48.816;11.506;2022-07-01T00:32:36;23.20;97.00
15690;DHT22;7945;48.816;11.506;2022-07-01T00:35:03;23.20;97.30
15690;DHT22;7945;48.816;11.506;2022-07-01T00:37:31;23.10;97.30
15690;DHT22;7945;48.816;11.506;2022-07-01T00:39:58;23.10;97.50
15690;DHT22;7945;48.816;11.506;2022-07-01T00:42:25;23.00;97.50
15690;DHT22;7945;48.816;11.506;2022-07-01T00:44:52;23.00;97.50
15690;DHT22;7945;48.816;11.506;2022-07-01T00:47:19;23.00;97.80
15690;DHT22;7945;48.816;11.506;2022-07-01T00:49:45;23.00;97.50
15690;DHT22;7945;48.816;11.506;2022-07-01T00:52:12;23.00;97.40
15690;DHT22;7945;48.816;11.506;2022-07-01T00:54:41;23.00;97.50
15690;DHT22;7945;48.816;11.506;2022-07-01T00:57:09;23.00;97.40
15690;DHT22;7945;48.816;11.506;2022-07-01T00:59:37;23.00;97.50
15690;DHT22;7945;48.816;11.506;2022-07-01T01:02:06;22.90;97.30
15690;DHT22;7945;48.816;11.506;2022-07-01T01:04:33;22.90;97.10
15690;DHT22;7945;48.816;11.506;2022-07-01T01:07:01;22.80;97.00
15690;DHT22;7945;48.816;11.506;2022-07-01T01:09:28;22.80;97.30
15690;DHT22;7945;48.816;11.506;2022-07-01T01:11:56;22.90;97.10
15690;DHT22;7945;48.816;11.506;2022-07-01T01:14:24;22.80;97.40
15690;DHT22;7945;48.816;11.506;2022-07-01T01:16:51;22.80;96.90
15690;DHT22;7945;48.816;11.506;2022-07-01T01:19:18;22.80;96.70
15690;DHT22;7945;48.816;11.506;2022-07-01T01:21:46;22.90;96.70
15690;DHT22;7945;48.816;11.506;2022-07-01T01:24:13;22.90;96.60
15690;DHT22;7945;48.816;11.506;2022-07-01T01:26:40;22.80;96.50
15690;DHT22;7945;48.816;11.506;2022-07-01T01:29:07;22.90;96.70
15690;DHT22;7945;48.816;11.506;2022-07-01T01:31:34;22.80;96.50
15690;DHT22;7945;48.816;11.506;2022-07-01T01:34:02;22.80;96.50
15690;DHT22;7945;48.816;11.506;2022-07-01T01:36:29;22.80;96.50
15690;DHT22;7945;48.816;11.506;2022-07-01T01:38:57;22.80;96.40
15690;DHT22;7945;48.816;11.506;2022-07-01T01:41:26;22.90;96.30
15690;DHT22;7945;48.816;11.506;2022-07-01T01:43:53;22.90;96.40
15690;DHT22;7945;48.816;11.506;2022-07-01T01:46:20;22.90;96.30
15690;DHT22;7945;48.816;11.506;2022-07-01T01:48:47;22.90;96.30
15690;DHT22;7945;48.816;11.506;2022-07-01T01:51:14;22.80;96.20
15690;DHT22;7945;48.816;11.506;2022-07-01T01:53:40;22.80;96.60
15690;DHT22;7945;48.816;11.506;2022-07-01T01:56:09;22.80;96.30
15690;DHT22;7945;48.816;11.506;2022-07-01T01:58:35;22.70;96.30
15690;DHT22;7945;48.816;11.506;2022-07-01T02:01:02;22.70;96.70
15690;DHT22;7945;48.816;11.506;2022-07-01T02:03:29;22.70;96.40
15690;DHT22;7945;48.816;11.506;2022-07-01T02:05:56;22.70;96.40
15690;DHT22;7945;48.816;11.506;2022-07-01T02:08:23;22.60;96.30
15690;DHT22;7945;48.816;11.506;2022-07-01T02:10:50;22.60;96.60
15690;DHT22;7945;48.816;11.506;2022-07-01T02:13:18;22.60;96.20
15690;DHT22;7945;48.816;11.506;2022-07-01T02:15:45;22.60;96.10
15690;DHT22;7945;48.816;11.506;2022-07-01T02:18:11;22.60;96.20
15690;DHT22;7945;48.816;11.506;2022-07-01T02:20:38;22.50;96.20
15690;DHT22;7945;48.816;11.506;2022-07-01T02:23:06;22.50;96.20
15690;DHT22;7945;48.816;11.506;2022-07-01T02:25:33;22.50;96.30
15690;DHT22;7945;48.816;11.506;2022-07-01T02:28:00;22.50;96.20
15690;DHT22;7945;48.816;11.506;2022-07-01T02:30:29;22.50;96.20
15690;DHT22;7945;48.816;11.506;2022-07-01T02:33:00;22.50;96.20
15690;DHT22;7945;48.816;11.506;2022-07-01T02:35:27;22.40;96.20
15690;DHT22;7945;48.816;11.506;2022-07-01T02:37:54;22.40;96.60
15690;DHT22;7945;48.816;11.506;2022-07-01T02:40:21;22.40;96.40
15690;DHT22;7945;48.816;11.506;2022-07-01T02:42:48;22.30;96.60
15690;DHT22;7945;48.816;11.506;2022-07-01T02:45:15;22.30;96.60
15690;DHT22;7945;48.816;11.506;2022-07-01T02:47:43;22.20;96.50
15690;DHT22;7945;48.816;11.506;2022-07-01T02:50:12;22.20;96.60
15690;DHT22;7945;48.816;11.506;2022-07-01T02:52:40;22.10;96.70
15690;DHT22;7945;48.816;11.506;2022-07-01T02:55:09;22.10;96.70
15690;DHT22;7945;48.816;11.506;2022-07-01T02:57:36;22.10;96.80
15690;DHT22;7945;48.816;11.506;2022-07-01T03:00:06;22.10;96.70
15690;DHT22;7945;48.816;11.506;2022-07-01T03:02:33;22.10;96.80
15690;DHT22;7945;48.816;11.506;2022-07-01T03:05:02;22.00;96.80
15690;DHT22;7945;48.816;11.506;2022-07-01T03:07:29;21.90;96.90
15690;DHT22;7945;48.816;11.506;2022-07-01T03:09:56;22.00;96.90
15690;DHT22;7945;48.816;11.506;2022-07-01T03:12:23;22.00;97.00
15690;DHT22;7945;48.816;11.506;2022-07-01T03:14:55;21.90;97.10
15690;DHT22;7945;48.816;11.506;2022-07-01T03:17:23;21.90;97.10
15690;DHT22;7945;48.816;11.506;2022-07-01T03:19:49;21.90;97.50
15690;DHT22;7945;48.816;11.506;2022-07-01T03:22:19;21.80;97.70
15690;DHT22;7945;48.816;11.506;2022-07-01T03:24:46;21.90;97.50
15690;DHT22;7945;48.816;11.506;2022-07-01T03:27:13;21.80;97.40
15690;DHT22;7945;48.816;11.506;2022-07-01T03:29:40;21.80;97.40
15690;DHT22;7945;48.816;11.506;2022-07-01T03:32:07;21.70;97.70
15690;DHT22;7945;48.816;11.506;2022-07-01T03:34:36;21.60;97.70
15690;DHT22;7945;48.816;11.506;2022-07-01T03:37:03;21.50;97.80
15690;DHT22;7945;48.816;11.506;2022-07-01T03:39:31;21.50;97.90
15690;DHT22;7945;48.816;11.506;2022-07-01T03:41:58;21.40;98.00
15690;DHT22;7945;48.816;11.506;2022-07-01T03:44:25;21.40;98.10
15690;DHT22;7945;48.816;11.506;2022-07-01T03:46:52;21.30;98.30
15690;DHT22;7945;48.816;11.506;2022-07-01T03:49:19;21.30;98.40
15690;DHT22;7945;48.816;11.506;2022-07-01T03:51:46;21.40;98.40
15690;DHT22;7945;48.816;11.506;2022-07-01T03:54:13;21.30;98.40
15690;DHT22;7945;48.816;11.506;2022-07-01T03:57:01;21.30;98.60
15690;DHT22;7945;48.816;11.506;2022-07-01T03:59:31;21.30;98.60
15690;DHT22;7945;48.816;11.506;2022-07-01T04:01:58;21.30;98.20
15690;DHT22;7945;48.816;11.506;2022-07-01T04:04:26;21.30;98.20
15690;DHT22;7945;48.816;11.506;2022-07-01T04:06:54;21.30;98.30
15690;DHT22;7945;48.816;11.506;2022-07-01T04:09:23;21.30;98.20
15690;DHT22;7945;48.816;11.506;2022-07-01T04:11:51;21.40;98.20
15690;DHT22;7945;48.816;11.506;2022-07-01T04:14:20;21.40;98.10
15690;DHT22;7945;48.816;11.506;2022-07-01T04:16:47;21.40;98.10
15690;DHT22;7945;48.816;11.506;2022-07-01T04:19:14;21.50;98.10
15690;DHT22;7945;48.816;11.506;2022-07-01T04:21:41;21.50;98.30
15690;DHT22;7945;48.816;11.506;2022-07-01T04:24:25;21.50;98.00
15690;DHT22;7945;48.816;11.506;2022-07-01T04:26:54;21.50;98.00
15690;DHT22;7945;48.816;11.506;2022-07-01T04:29:22;21.50;97.90
15690;DHT22;7945;48.816;11.506;2022-07-01T04:31:49;21.50;98.10
15690;DHT22;7945;48.816;11.506;2022-07-01T04:34:16;21.60;97.80
15690;DHT22;7945;48.816;11.506;2022-07-01T04:36:43;21.60;97.70
15690;DHT22;7945;48.816;11.506;2022-07-01T04:39:11;21.60;97.70
15690;DHT22;7945;48.816;11.506;2022-07-01T04:41:38;21.60;97.60
15690;DHT22;7945;48.816;11.506;2022-07-01T04:44:23;21.60;97.60
15690;DHT22;7945;48.816;11.506;2022-07-01T04:46:50;21.50;97.30
15690;DHT22;7945;48.816;11.506;2022-07-01T04:49:17;21.50;97.30
15690;DHT22;7945;48.816;11.506;2022-07-01T04:51:44;21.40;97.50
15690;DHT22;7945;48.816;11.506;2022-07-01T04:54:11;21.30;97.60
15690;DHT22;7945;48.816;11.506;2022-07-01T04:56:38;21.30;97.70
15690;DHT22;7945;48.816;11.506;2022-07-01T04:59:05;21.30;97.60
15690;DHT22;7945;48.816;11.506;2022-07-01T05:01:33;21.20;97.50
15690;DHT22;7945;48.816;11.506;2022-07-01T05:04:00;21.20;97.60
15690;DHT22;7945;48.816;11.506;2022-07-01T05:06:27;21.20;97.50
15690;DHT22;7945;48.816;11.506;2022-07-01T05:08:54;21.20;97.40
15690;DHT22;7945;48.816;11.506;2022-07-01T05:11:21;21.30;97.50
15690;DHT22;7945;48.816;11.506;2022-07-01T05:13:48;21.30;97.50
15690;DHT22;7945;48.816;11.506;2022-07-01T05:16:15;21.30;97.40
15690;DHT22;7945;48.816;11.506;2022-07-01T05:18:43;21.40;97.60
15690;DHT22;7945;48.816;11.506;2022-07-01T05:21:28;21.40;97.30
15690;DHT22;7945;48.816;11.506;2022-07-01T05:24:12;21.40;97.50
15690;DHT22;7945;48.816;11.506;2022-07-01T05:26:39;21.30;97.70
15690;DHT22;7945;48.816;11.506;2022-07-01T05:29:07;21.30;98.30
15690;DHT22;7945;48.816;11.506;2022-07-01T05:31:34;21.30;98.80
15690;DHT22;7945;48.816;11.506;2022-07-01T05:34:02;21.30;99.30
15690;DHT22;7945;48.816;11.506;2022-07-01T05:36:29;21.30;99.90
15690;DHT22;7945;48.816;11.506;2022-07-01T05:38:56;21.30;99.80
15690;DHT22;7945;48.816;11.506;2022-07-01T05:41:23;21.20;99.90
15690;DHT22;7945;48.816;11.506;2022-07-01T05:43:49;21.20;99.90
15690;DHT22;7945;48.816;11.506;2022-07-01T05:46:16;21.20;99.90
15690;DHT22;7945;48.816;11.506;2022-07-01T05:48:43;21.50;99.80
15690;DHT22;7945;48.816;11.506;2022-07-01T05:51:11;21.50;99.50
15690;DHT22;7945;48.816;11.506;2022-07-01T05:53:38;21.50;99.90
15690;DHT22;7945;48.816;11.506;2022-07-01T05:56:05;21.40;99.90
15690;DHT22;7945;48.816;11.506;2022-07-01T05:58:32;21.40;99.90
15690;DHT22;7945;48.816;11.506;2022-07-01T06:00:59;21.30;99.90
15690;DHT22;7945;48.816;11.506;2022-07-01T06:03:25;21.30;99.90
15690;DHT22;7945;48.816;11.506;2022-07-01T06:05:52;21.30;99.90
15690;DHT22;7945;48.816;11.506;2022-07-01T06:08:20;21.20;99.90
15690;DHT22;7945;48.816;11.506;2022-07-01T06:10:47;21.20;99.90
15690;DHT22;7945;48.816;11.506;2022-07-01T06:14:30;21.10;99.90
15690;DHT22;7945;48.816;11.506;2022-07-01T06:16:57;21.00;99.90
15690;DHT22;7945;48.816;11.506;2022-07-01T06:19:24;20.90;99.90
15690;DHT22;7945;48.816;11.506;2022-07-01T06:21:51;20.80;99.90
15690;DHT22;7945;48.816;11.506;2022-07-01T06:24:18;20.60;99.90
15690;DHT22;7945;48.816;11.506;2022-07-01T06:26:45;20.50;99.90
15690;DHT22;7945;48.816;11.506;2022-07-01T06:29:13;20.40;99.90
15690;DHT22;7945;48.816;11.506;2022-07-01T06:31:41;20.30;99.90
15690;DHT22;7945;48.816;11.506;2022-07-01T06:34:08;20.30;99.90
15690;DHT22;7945;48.816;11.506;2022-07-01T06:36:35;20.20;99.90
15690;DHT22;7945;48.816;11.506;2022-07-01T06:39:02;20.30;99.90
15690;DHT22;7945;48.816;11.506;2022-07-01T06:41:29;20.20;99.90
15690;DHT22;7945;48.816;11.506;2022-07-01T06:43:57;20.30;99.90
15690;DHT22;7945;48.816;11.506;2022-07-01T06:46:24;20.30;99.90
15690;DHT22;7945;48.816;11.506;2022-07-01T06:48:53;20.30;99.90
15690;DHT22;7945;48.816;11.506;2022-07-01T06:51:20;20.30;99.90
15690;DHT22;7945;48.816;11.506;2022-07-01T06:53:47;20.20;99.90
15690;DHT22;7945;48.816;11.506;2022-07-01T06:56:15;20.00;99.90
15690;DHT22;7945;48.816;11.506;2022-07-01T06:58:43;19.90;99.90
15690;DHT22;7945;48.816;11.506;2022-07-01T07:01:10;19.90;99.90
15690;DHT22;7945;48.816;11.506;2022-07-01T07:03:36;19.90;99.90
15690;DHT22;7945;48.816;11.506;2022-07-01T07:06:05;19.70;99.90
15690;DHT22;7945;48.816;11.506;2022-07-01T07:08:32;19.60;99.90
15690;DHT22;7945;48.816;11.506;2022-07-01T07:10:59;19.60;99.90
15690;DHT22;7945;48.816;11.506;2022-07-01T07:13:28;19.50;99.90
15690;DHT22;7945;48.816;11.506;2022-07-01T07:15:55;19.40;99.90
15690;DHT22;7945;48.816;11.506;2022-07-01T07:18:22;19.30;99.90
15690;DHT22;7945;48.816;11.506;2022-07-01T07:20:49;19.30;99.90
15690;DHT22;7945;48.816;11.506;2022-07-01T07:23:18;19.30;99.90
15690;DHT22;7945;48.816;11.506;2022-07-01T07:25:45;19.20;99.90
15690;DHT22;7945;48.816;11.506;2022-07-01T07:28:12;19.20;99.90
15690;DHT22;7945;48.816;11.506;2022-07-01T07:30:39;19.20;99.90
15690;DHT22;7945;48.816;11.506;2022-07-01T07:33:06;19.20;99.90
15690;DHT22;7945;48.816;11.506;2022-07-01T07:35:33;19.40;99.90
15690;DHT22;7945;48.816;11.506;2022-07-01T07:37:59;19.30;99.90
15690;DHT22;7945;48.816;11.506;2022-07-01T07:40:28;19.20;99.90
15690;DHT22;7945;48.816;11.506;2022-07-01T07:42:55;19.30;99.90
15690;DHT22;7945;48.816;11.506;2022-07-01T07:45:21;19.30;99.90
15690;DHT22;7945;48.816;11.506;2022-07-01T07:47:49;19.50;99.90
15690;DHT22;7945;48.816;11.506;2022-07-01T07:50:17;19.60;99.90
15690;DHT22;7945;48.816;11.506;2022-07-01T07:52:44;19.80;99.90
15690;DHT22;7945;48.816;11.506;2022-07-01T07:55:11;20.00;99.90
15690;DHT22;7945;48.816;11.506;2022-07-01T07:57:40;20.10;99.80
15690;DHT22;7945;48.816;11.506;2022-07-01T08:00:09;20.30;99.20
15690;DHT22;7945;48.816;11.506;2022-07-01T08:02:37;20.40;98.70
15690;DHT22;7945;48.816;11.506;2022-07-01T08:05:05;20.40;98.90
15690;DHT22;7945;48.816;11.506;2022-07-01T08:07:35;20.40;98.60
15690;DHT22;7945;48.816;11.506;2022-07-01T08:10:02;20.50;98.70
15690;DHT22;7945;48.816;11.506;2022-07-01T08:12:29;20.50;98.70
15690;DHT22;7945;48.816;11.506;2022-07-01T08:14:58;20.60;98.80
15690;DHT22;7945;48.816;11.506;2022-07-01T08:17:25;20.60;98.80
15690;DHT22;7945;48.816;11.506;2022-07-01T08:19:52;20.70;98.90
15690;DHT22;7945;48.816;11.506;2022-07-01T08:22:19;20.80;98.80
15690;DHT22;7945;48.816;11.506;2022-07-01T08:24:46;20.70;98.60
15690;DHT22;7945;48.816;11.506;2022-07-01T08:27:14;20.60;99.00
15690;DHT22;7945;48.816;11.506;2022-07-01T08:29:40;20.50;99.20
15690;DHT22;7945;48.816;11.506;2022-07-01T08:32:09;20.50;99.50
15690;DHT22;7945;48.816;11.506;2022-07-01T08:34:36;20.30;99.40
15690;DHT22;7945;48.816;11.506;2022-07-01T08:37:03;20.30;99.60
15690;DHT22;7945;48.816;11.506;2022-07-01T08:39:30;20.20;99.20
15690;DHT22;7945;48.816;11.506;2022-07-01T08:41:57;20.10;99.30
15690;DHT22;7945;48.816;11.506;2022-07-01T08:44:25;20.10;99.50
15690;DHT22;7945;48.816;11.506;2022-07-01T08:46:52;20.00;99.20
15690;DHT22;7945;48.816;11.506;2022-07-01T08:49:21;20.00;99.30
15690;DHT22;7945;48.816;11.506;2022-07-01T08:51:48;20.00;99.00
15690;DHT22;7945;48.816;11.506;2022-07-01T08:54:15;20.00;99.10
15690;DHT22;7945;48.816;11.506;2022-07-01T08:56:42;19.90;98.90
15690;DHT22;7945;48.816;11.506;2022-07-01T08:59:09;19.80;98.80
15690;DHT22;7945;48.816;11.506;2022-07-01T09:01:36;19.70;99.10
15690;DHT22;7945;48.816;11.506;2022-07-01T09:04:15;19.60;98.90
15690;DHT22;7945;48.816;11.506;2022-07-01T09:06:44;19.60;98.70
15690;DHT22;7945;48.816;11.506;2022-07-01T09:09:12;19.60;98.90
15690;DHT22;7945;48.816;11.506;2022-07-01T09:11:44;19.60;98.90
15690;DHT22;7945;48.816;11.506;2022-07-01T09:14:13;19.50;98.90
15690;DHT22;7945;48.816;11.506;2022-07-01T09:16:42;19.50;98.70
15690;DHT22;7945;48.816;11.506;2022-07-01T09:19:09;19.30;98.60
15690;DHT22;7945;48.816;11.506;2022-07-01T09:21:36;19.30;99.00
15690;DHT22;7945;48.816;11.506;2022-07-01T09:24:21;19.30;99.00
15690;DHT22;7945;48.816;11.506;2022-07-01T09:26:52;19.40;98.80
15690;DHT22;7945;48.816;11.506;2022-07-01T09:29:19;19.40;99.40
15690;DHT22;7945;48.816;11.506;2022-07-01T09:31:48;19.50;98.40
15690;DHT22;7945;48.816;11.506;2022-07-01T09:34:15;19.50;98.50
15690;DHT22;7945;48.816;11.506;2022-07-01T09:36:51;19.40;98.20
15690;DHT22;7945;48.816;11.506;2022-07-01T09:39:20;19.30;98.30
15690;DHT22;7945;48.816;11.506;2022-07-01T09:41:47;19.40;98.10
15690;DHT22;7945;48.816;11.506;2022-07-01T09:44:14;19.40;98.00
15690;DHT22;7945;48.816;11.506;2022-07-01T09:46:52;19.40;98.10
15690;DHT22;7945;48.816;11.506;2022-07-01T09:49:19;19.40;98.00
15690;DHT22;7945;48.816;11.506;2022-07-01T09:51:47;19.40;98.10
15690;DHT22;7945;48.816;11.506;2022-07-01T09:54:15;19.50;98.10
15690;DHT22;7945;48.816;11.506;2022-07-01T09:56:43;19.60;98.00
15690;DHT22;7945;48.816;11.506;2022-07-01T09:59:10;19.60;97.80
15690;DHT22;7945;48.816;11.506;2022-07-01T10:01:38;19.60;97.80
15690;DHT22;7945;48.816;11.506;2022-07-01T10:04:07;19.60;97.90
15690;DHT22;7945;48.816;11.506;2022-07-01T10:06:48;19.60;97.90
15690;DHT22;7945;48.816;11.506;2022-07-01T10:12:34;19.70;97.40
15690;DHT22;7945;48.816;11.506;2022-07-01T10:15:05;19.80;97.50
15690;DHT22;7945;48.816;11.506;2022-07-01T10:17:37;19.80;97.40
15690;DHT22;7945;48.816;11.506;2022-07-01T10:20:10;19.80;97.40
15690;DHT22;7945;48.816;11.506;2022-07-01T10:22:37;19.80;97.60
15690;DHT22;7945;48.816;11.506;2022-07-01T10:25:31;19.80;97.10
15690;DHT22;7945;48.816;11.506;2022-07-01T10:28:41;19.70;97.40
15690;DHT22;7945;48.816;11.506;2022-07-01T10:31:10;19.60;97.00
15690;DHT22;7945;48.816;11.506;2022-07-01T10:33:44;19.50;97.20
15690;DHT22;7945;48.816;11.506;2022-07-01T10:36:24;19.40;97.70
15690;DHT22;7945;48.816;11.506;2022-07-01T10:39:16;19.40;97.40
15690;DHT22;7945;48.816;11.506;2022-07-01T10:42:03;19.40;97.80
15690;DHT22;7945;48.816;11.506;2022-07-01T10:44:32;19.50;97.50
15690;DHT22;7945;48.816;11.506;2022-07-01T10:47:05;19.40;97.80
15690;DHT22;7945;48.816;11.506;2022-07-01T10:49:51;19.30;97.40
15690;DHT22;7945;48.816;11.506;2022-07-01T10:52:19;19.30;97.50
15690;DHT22;7945;48.816;11.506;2022-07-01T10:54:46;19.30;97.70
15690;DHT22;7945;48.816;11.506;2022-07-01T10:57:39;19.30;97.30
15690;DHT22;7945;48.816;11.506;2022-07-01T11:00:33;19.30;97.30
15690;DHT22;7945;48.816;11.506;2022-07-01T11:03:18;19.40;97.60
15690;DHT22;7945;48.816;11.506;2022-07-01T11:05:48;19.50;97.60
15690;DHT22;7945;48.816;11.506;2022-07-01T11:08:15;19.50;97.80
15690;DHT22;7945;48.816;11.506;2022-07-01T11:10:42;19.50;98.00
15690;DHT22;7945;48.816;11.506;2022-07-01T11:13:13;19.50;98.10
15690;DHT22;7945;48.816;11.506;2022-07-01T11:15:44;19.40;98.20
15690;DHT22;7945;48.816;11.506;2022-07-01T11:18:13;19.30;98.30
15690;DHT22;7945;48.816;11.506;2022-07-01T11:20:40;19.20;98.40
15690;DHT22;7945;48.816;11.506;2022-07-01T11:23:07;19.40;98.90
15690;DHT22;7945;48.816;11.506;2022-07-01T11:25:34;19.50;98.10
15690;DHT22;7945;48.816;11.506;2022-07-01T11:28:00;19.50;98.40
15690;DHT22;7945;48.816;11.506;2022-07-01T11:30:27;19.50;98.00
15690;DHT22;7945;48.816;11.506;2022-07-01T11:32:57;19.30;98.00
15690;DHT22;7945;48.816;11.506;2022-07-01T11:35:26;19.30;98.30
15690;DHT22;7945;48.816;11.506;2022-07-01T11:38:12;19.30;98.20
15690;DHT22;7945;48.816;11.506;2022-07-01T11:40:58;19.40;98.10
15690;DHT22;7945;48.816;11.506;2022-07-01T11:43:26;19.30;97.90
15690;DHT22;7945;48.816;11.506;2022-07-01T11:45:56;19.20;98.20
15690;DHT22;7945;48.816;11.506;2022-07-01T11:48:37;19.20;98.10
15690;DHT22;7945;48.816;11.506;2022-07-01T11:51:09;19.20;98.00
15690;DHT22;7945;48.816;11.506;2022-07-01T11:53:38;19.20;98.00
15690;DHT22;7945;48.816;11.506;2022-07-01T11:56:05;19.40;99.70
15690;DHT22;7945;48.816;11.506;2022-07-01T11:58:44;19.90;97.30
15690;DHT22;7945;48.816;11.506;2022-07-01T12:01:11;20.10;97.20
15690;DHT22;7945;48.816;11.506;2022-07-01T12:03:39;20.00;97.30
15690;DHT22;7945;48.816;11.506;2022-07-01T12:06:06;19.90;96.50
15690;DHT22;7945;48.816;11.506;2022-07-01T12:08:33;19.80;96.90
15690;DHT22;7945;48.816;11.506;2022-07-01T12:11:01;19.80;96.80
15690;DHT22;7945;48.816;11.506;2022-07-01T12:13:28;19.80;97.00
15690;DHT22;7945;48.816;11.506;2022-07-01T12:16:05;19.70;97.00
15690;DHT22;7945;48.816;11.506;2022-07-01T12:18:32;19.80;97.20
15690;DHT22;7945;48.816;11.506;2022-07-01T12:21:01;19.80;96.80
15690;DHT22;7945;48.816;11.506;2022-07-01T12:23:27;19.80;96.80
15690;DHT22;7945;48.816;11.506;2022-07-01T12:25:56;19.70;97.10
15690;DHT22;7945;48.816;11.506;2022-07-01T12:28:27;19.70;97.40
15690;DHT22;7945;48.816;11.506;2022-07-01T12:31:05;19.70;97.80
15690;DHT22;7945;48.816;11.506;2022-07-01T12:33:37;19.70;97.90
15690;DHT22;7945;48.816;11.506;2022-07-01T12:36:06;19.70;97.50
15690;DHT22;7945;48.816;11.506;2022-07-01T12:38:34;19.60;97.80
15690;DHT22;7945;48.816;11.506;2022-07-01T12:41:01;19.60;97.60
15690;DHT22;7945;48.816;11.506;2022-07-01T12:43:29;19.50;97.80
15690;DHT22;7945;48.816;11.506;2022-07-01T12:46:03;19.40;98.20
15690;DHT22;7945;48.816;11.506;2022-07-01T12:48:47;19.50;98.50
15690;DHT22;7945;48.816;11.506;2022-07-01T12:51:15;19.50;98.10
15690;DHT22;7945;48.816;11.506;2022-07-01T12:53:42;19.50;98.10
15690;DHT22;7945;48.816;11.506;2022-07-01T12:56:22;19.50;98.10
15690;DHT22;7945;48.816;11.506;2022-07-01T12:58:49;19.50;98.00
15690;DHT22;7945;48.816;11.506;2022-07-01T13:01:18;19.30;98.10
15690;DHT22;7945;48.816;11.506;2022-07-01T13:03:45;19.30;98.30
15690;DHT22;7945;48.816;11.506;2022-07-01T13:06:12;19.20;98.80
15690;DHT22;7945;48.816;11.506;2022-07-01T13:08:40;19.10;98.50
15690;DHT22;7945;48.816;11.506;2022-07-01T13:11:07;19.00;99.10
15690;DHT22;7945;48.816;11.506;2022-07-01T13:13:34;19.00;99.90
15690;DHT22;7945;48.816;11.506;2022-07-01T13:16:01;18.90;99.90
15690;DHT22;7945;48.816;11.506;2022-07-01T13:18:28;18.80;99.90
15690;DHT22;7945;48.816;11.506;2022-07-01T13:20:55;18.70;99.90
15690;DHT22;7945;48.816;11.506;2022-07-01T13:23:22;18.60;99.90
15690;DHT22;7945;48.816;11.506;2022-07-01T13:25:50;18.60;99.90
15690;DHT22;7945;48.816;11.506;2022-07-01T13:28:17;18.60;99.90
15690;DHT22;7945;48.816;11.506;2022-07-01T13:30:44;18.50;99.90
15690;DHT22;7945;48.816;11.506;2022-07-01T13:33:11;18.40;99.90
15690;DHT22;7945;48.816;11.506;2022-07-01T13:35:38;18.30;99.90
15690;DHT22;7945;48.816;11.506;2022-07-01T13:38:05;18.30;99.90
15690;DHT22;7945;48.816;11.506;2022-07-01T13:40:31;18.30;99.90
15690;DHT22;7945;48.816;11.506;2022-07-01T13:43:00;18.30;99.90
15690;DHT22;7945;48.816;11.506;2022-07-01T13:45:27;18.30;99.90
15690;DHT22;7945;48.816;11.506;2022-07-01T13:47:54;18.30;99.90
15690;DHT22;7945;48.816;11.506;2022-07-01T13:50:21;18.30;99.90
15690;DHT22;7945;48.816;11.506;2022-07-01T13:52:48;18.20;99.90
15690;DHT22;7945;48.816;11.506;2022-07-01T13:55:15;18.30;99.90
15690;DHT22;7945;48.816;11.506;2022-07-01T13:57:42;18.30;99.90
15690;DHT22;7945;48.816;11.506;2022-07-01T14:00:11;18.30;99.90
15690;DHT22;7945;48.816;11.506;2022-07-01T14:02:38;18.30;99.90
15690;DHT22;7945;48.816;11.506;2022-07-01T14:05:06;18.30;99.90
15690;DHT22;7945;48.816;11.506;2022-07-01T14:07:33;18.30;99.90
15690;DHT22;7945;48.816;11.506;2022-07-01T14:10:00;18.40;99.90
15690;DHT22;7945;48.816;11.506;2022-07-01T14:12:27;18.50;99.90
15690;DHT22;7945;48.816;11.506;2022-07-01T14:14:55;18.60;99.90
15690;DHT22;7945;48.816;11.506;2022-07-01T14:17:23;18.70;99.90
15690;DHT22;7945;48.816;11.506;2022-07-01T14:19:50;18.70;99.90
15690;DHT22;7945;48.816;11.506;2022-07-01T14:22:16;18.70;99.90
15690;DHT22;7945;48.816;11.506;2022-07-01T14:24:43;18.70;99.90
15690;DHT22;7945;48.816;11.506;2022-07-01T14:27:10;18.60;99.90
15690;DHT22;7945;48.816;11.506;2022-07-01T14:29:37;18.60;99.90
15690;DHT22;7945;48.816;11.506;2022-07-01T14:32:05;18.50;99.90
15690;DHT22;7945;48.816;11.506;2022-07-01T14:34:34;18.50;99.90
15690;DHT22;7945;48.816;11.506;2022-07-01T14:37:00;18.30;99.90
15690;DHT22;7945;48.816;11.506;2022-07-01T14:39:27;18.30;99.90
15690;DHT22;7945;48.816;11.506;2022-07-01T14:41:55;18.30;99.90
15690;DHT22;7945;48.816;11.506;2022-07-01T14:44:22;18.30;99.90
15690;DHT22;7945;48.816;11.506;2022-07-01T14:46:49;18.30;99.90
15690;DHT22;7945;48.816;11.506;2022-07-01T14:49:16;18.30;99.90
15690;DHT22;7945;48.816;11.506;2022-07-01T14:51:45;18.40;99.90
15690;DHT22;7945;48.816;11.506;2022-07-01T14:54:12;18.50;99.90
15690;DHT22;7945;48.816;11.506;2022-07-01T14:56:38;18.60;99.90
15690;DHT22;7945;48.816;11.506;2022-07-01T14:59:05;18.70;99.90
15690;DHT22;7945;48.816;11.506;2022-07-01T15:01:33;18.70;99.90
15690;DHT22;7945;48.816;11.506;2022-07-01T15:03:59;18.70;99.90
15690;DHT22;7945;48.816;11.506;2022-07-01T15:06:27;18.70;99.90
15690;DHT22;7945;48.816;11.506;2022-07-01T15:08:55;18.70;99.90
15690;DHT22;7945;48.816;11.506;2022-07-01T15:11:22;18.70;99.90
15690;DHT22;7945;48.816;11.506;2022-07-01T15:13:48;18.60;99.90
15690;DHT22;7945;48.816;11.506;2022-07-01T15:16:15;18.60;99.90
15690;DHT22;7945;48.816;11.506;2022-07-01T15:18:42;18.60;99.90
15690;DHT22;7945;48.816;11.506;2022-07-01T15:21:09;18.60;99.90
15690;DHT22;7945;48.816;11.506;2022-07-01T15:23:36;18.60;99.90
15690;DHT22;7945;48.816;11.506;2022-07-01T15:26:04;18.60;99.90
15690;DHT22;7945;48.816;11.506;2022-07-01T15:28:31;18.70;99.90
15690;DHT22;7945;48.816;11.506;2022-07-01T15:30:58;18.90;99.90
15690;DHT22;7945;48.816;11.506;2022-07-01T15:33:25;19.00;99.90
15690;DHT22;7945;48.816;11.506;2022-07-01T15:35:52;19.10;99.90
15690;DHT22;7945;48.816;11.506;2022-07-01T15:38:18;19.20;99.90
15690;DHT22;7945;48.816;11.506;2022-07-01T15:40:46;19.20;99.90
15690;DHT22;7945;48.816;11.506;2022-07-01T15:43:14;19.30;99.90